Kaprifol — 5BXX2 — position and weather

sailwx.info

Track history (hours):
 
Tides and Currents Weather Stations Pressure Air Temp Water Temp Dewpoint Dewpoint Depression Visibility Wind Speed Wind Dir Waves Ship Positions

Kaprifol

Last reported at 2014-Aug-31 01:27 UTC. Time now 2014-Aug-31 04:32 UTC.
Position N 59°15' E 005°00'.

Length 90 m; draft 5.2 m.

Type: Tanker. MMSI: 210445000.

Date/timePositionNaut miles runAvg speedWind from/ knotsBaromVisibWave heightAir tempDewpointWater temp
2014-Aug-31 01:27N 59°15' E 005°00'910.3
2014-Aug-31 00:33N 59°07' E 005°09'1010.3
2014-Aug-30 23:34N 59°07' E 005°29'9 9.5
2014-Aug-30 22:34N 59°02' E 005°45'5 5.3
2014-Aug-30 21:33N 58°57' E 005°45'0 0.0
2014-Aug-30 20:33N 58°57' E 005°45'0 0.0
2014-Aug-30 19:33N 58°57' E 005°45'0 0.0
2014-Aug-30 18:33N 58°57' E 005°45'0 0.0
2014-Aug-30 17:33N 58°57' E 005°45'0 0.0
2014-Aug-30 16:33N 58°57' E 005°45'0 0.0
2014-Aug-30 15:33N 58°57' E 005°45'1 0.7
2014-Aug-30 14:34N 58°57' E 005°46'6 6.1
2014-Aug-30 13:34N 59°02' E 005°38'8 7.5
2014-Aug-30 12:34N 58°55' E 005°32'1010.4
2014-Aug-30 11:33N 58°45' E 005°24'35210.6
2014-Aug-29 02:27N 52°55' E 004°17'9 9.9
2014-Aug-29 01:34N 52°48' E 004°09'10 9.8
2014-Aug-29 00:33N 52°40' E 003°59'13 9.5
2014-Aug-28 23:12N 52°31' E 003°45'50 9.8
2014-Aug-28 18:09N 51°45' E 003°15'610.1
2014-Aug-28 17:32N 51°40' E 003°20'1211.6
2014-Aug-28 16:33N 51°30' E 003°29'1010.4
2014-Aug-28 15:33N 51°24' E 003°42'6 5.6
2014-Aug-28 14:34N 51°20' E 003°49'3 3.2
2014-Aug-28 13:33N 51°17' E 003°50'6 5.9
2014-Aug-28 12:33N 51°11' E 003°48'6 6.0
2014-Aug-28 11:33N 51°05' E 003°44'0 0.3
2014-Aug-28 10:31N 51°05' E 003°44'0 0.0
2014-Aug-28 09:31N 51°05' E 003°44'0 0.0
2014-Aug-28 08:31N 51°05' E 003°44'0 0.0
2014-Aug-28 07:31N 51°05' E 003°44'0 0.0
2014-Aug-28 06:31N 51°05' E 003°44'0 0.0
2014-Aug-28 05:31N 51°05' E 003°44'0 0.0
2014-Aug-28 04:31N 51°05' E 003°44'0 0.0
2014-Aug-28 03:28N 51°05' E 003°44'0 0.0
2014-Aug-28 02:31N 51°05' E 003°44'0 0.0
2014-Aug-28 01:25N 51°05' E 003°44'0 0.0
2014-Aug-28 00:25N 51°05' E 003°44'0 0.0
2014-Aug-27 23:25N 51°05' E 003°44'0 0.0
2014-Aug-27 22:31N 51°05' E 003°44'0 0.0
2014-Aug-27 21:31N 51°05' E 003°44'0 0.0
2014-Aug-27 20:31N 51°05' E 003°44'0 0.0
2014-Aug-27 19:31N 51°05' E 003°44'0 0.0
2014-Aug-27 18:31N 51°05' E 003°44'0 0.0
2014-Aug-27 17:31N 51°05' E 003°44'0 0.0
2014-Aug-27 16:31N 51°05' E 003°44'0 0.0
2014-Aug-27 15:19N 51°05' E 003°44'0 0.0
2014-Aug-27 14:31N 51°05' E 003°44'0 0.0
2014-Aug-27 13:31N 51°05' E 003°44'0 0.0
2014-Aug-27 12:31N 51°05' E 003°44'0 0.0
2014-Aug-27 11:31N 51°05' E 003°44'0 0.0
2014-Aug-27 10:31N 51°05' E 003°44'0 0.0
2014-Aug-27 09:31N 51°05' E 003°44'0 0.0
2014-Aug-27 08:31N 51°05' E 003°44'0 0.0
2014-Aug-27 07:31N 51°05' E 003°44'0 0.0
2014-Aug-27 06:33N 51°05' E 003°44'0 0.0
2014-Aug-27 05:31N 51°05' E 003°44'0 0.3
2014-Aug-27 04:33N 51°05' E 003°44'0 0.0
2014-Aug-27 03:25N 51°05' E 003°44'0 0.0
2014-Aug-27 02:31N 51°05' E 003°44'0 0.0
2014-Aug-27 01:31N 51°05' E 003°44'0 0.0
2014-Aug-27 00:28N 51°05' E 003°44'0 0.0
2014-Aug-26 23:31N 51°05' E 003°44'0 0.0
2014-Aug-26 22:31N 51°05' E 003°44'0 0.0
2014-Aug-26 21:31N 51°05' E 003°44'0 0.0
2014-Aug-26 20:31N 51°05' E 003°44'0 0.0
2014-Aug-26 19:31N 51°05' E 003°44'0 0.0
2014-Aug-26 18:28N 51°05' E 003°44'0 0.0
2014-Aug-26 17:31N 51°05' E 003°44'0 0.0
2014-Aug-26 16:31N 51°05' E 003°44'0 0.0
2014-Aug-26 15:31N 51°05' E 003°44'0 0.0
2014-Aug-26 14:31N 51°05' E 003°44'0 0.0
2014-Aug-26 13:31N 51°05' E 003°44'0 0.0
2014-Aug-26 12:31N 51°05' E 003°44'0 0.0
2014-Aug-26 11:31N 51°05' E 003°44'0 0.0
2014-Aug-26 10:31N 51°05' E 003°44'0 0.0
2014-Aug-26 09:31N 51°05' E 003°44'0 0.0
2014-Aug-26 08:34N 51°05' E 003°44'0 0.0
2014-Aug-26 07:31N 51°05' E 003°44'0 0.0
2014-Aug-26 06:33N 51°05' E 003°44'0 0.0
2014-Aug-26 05:28N 51°05' E 003°44'0 0.0
2014-Aug-26 04:30N 51°05' E 003°44'0 0.0
2014-Aug-26 03:31N 51°05' E 003°44'0 0.0
2014-Aug-26 02:33N 51°05' E 003°44'0 0.0
2014-Aug-26 01:33N 51°05' E 003°44'0 0.0
2014-Aug-26 00:33N 51°05' E 003°44'0 0.0
2014-Aug-25 23:30N 51°05' E 003°44'0 0.0
2014-Aug-25 22:33N 51°05' E 003°44'0 0.0
2014-Aug-25 21:33N 51°05' E 003°44'1 1.5
2014-Aug-25 20:33N 51°07' E 003°45'8 7.6
2014-Aug-25 19:33N 51°14' E 003°49'6 5.8
2014-Aug-25 18:34N 51°20' E 003°49'0 0.0
2014-Aug-25 17:34N 51°20' E 003°49'5 4.5
2014-Aug-25 16:33N 51°23' E 003°43'7 7.5
2014-Aug-25 15:33N 51°27' E 003°33'7 6.8
2014-Aug-25 14:33N 51°32' E 003°26'11 7.9
2014-Aug-25 13:10N 51°41' E 003°17'31 2.2
2014-Aug-24 23:19N 52°07' E 002°49'37 2.1
2014-Aug-24 05:31N 52°02' E 003°50'9 9.2
2014-Aug-24 04:33N 51°59' E 004°03'1111.4
2014-Aug-24 03:34N 51°54' E 004°19'8 7.8
2014-Aug-24 02:33N 51°50' E 004°30'5 5.2
2014-Aug-24 01:31N 51°47' E 004°38'0 0.0
2014-Aug-24 00:31N 51°47' E 004°38'0 0.0
2014-Aug-23 23:31N 51°47' E 004°38'0 0.0
2014-Aug-23 22:31N 51°47' E 004°38'0 0.0
2014-Aug-23 21:31N 51°47' E 004°38'0 0.0
2014-Aug-23 20:31N 51°47' E 004°38'0 0.0
2014-Aug-23 19:34N 51°47' E 004°38'72 4.5
2014-Aug-23 03:30N 52°56' E 003°59'68 9.7
2014-Aug-22 20:32N 53°57' E 004°46'  
Track history (hours):
 
Tides and Currents Weather Stations Pressure Air Temp Water Temp Dewpoint Dewpoint Depression Visibility Wind Speed Wind Dir Waves Ship Positions

Kaprifol

Last reported at 2014-Aug-31 01:27 UTC. Time now 2014-Aug-31 04:32 UTC.
Position N 59°15' E 005°00'.

Length 90 m; draft 5.2 m.

Type: Tanker. MMSI: 210445000.

Date/timePositionNaut miles runAvg speedWind from/ knotsBaromVisibWave heightAir tempDewpointWater temp
2014-Aug-31 01:27N 59°15' E 005°00'910.3
2014-Aug-31 00:33N 59°07' E 005°09'1010.3
2014-Aug-30 23:34N 59°07' E 005°29'9 9.5
2014-Aug-30 22:34N 59°02' E 005°45'5 5.3
2014-Aug-30 21:33N 58°57' E 005°45'0 0.0
2014-Aug-30 20:33N 58°57' E 005°45'0 0.0
2014-Aug-30 19:33N 58°57' E 005°45'0 0.0
2014-Aug-30 18:33N 58°57' E 005°45'0 0.0
2014-Aug-30 17:33N 58°57' E 005°45'0 0.0
2014-Aug-30 16:33N 58°57' E 005°45'0 0.0
2014-Aug-30 15:33N 58°57' E 005°45'1 0.7
2014-Aug-30 14:34N 58°57' E 005°46'6 6.1
2014-Aug-30 13:34N 59°02' E 005°38'8 7.5
2014-Aug-30 12:34N 58°55' E 005°32'1010.4
2014-Aug-30 11:33N 58°45' E 005°24'35210.6
2014-Aug-29 02:27N 52°55' E 004°17'9 9.9
2014-Aug-29 01:34N 52°48' E 004°09'10 9.8
2014-Aug-29 00:33N 52°40' E 003°59'13 9.5
2014-Aug-28 23:12N 52°31' E 003°45'50 9.8
2014-Aug-28 18:09N 51°45' E 003°15'610.1
2014-Aug-28 17:32N 51°40' E 003°20'1211.6
2014-Aug-28 16:33N 51°30' E 003°29'1010.4
2014-Aug-28 15:33N 51°24' E 003°42'6 5.6
2014-Aug-28 14:34N 51°20' E 003°49'3 3.2
2014-Aug-28 13:33N 51°17' E 003°50'6 5.9
2014-Aug-28 12:33N 51°11' E 003°48'6 6.0
2014-Aug-28 11:33N 51°05' E 003°44'0 0.3
2014-Aug-28 10:31N 51°05' E 003°44'0 0.0
2014-Aug-28 09:31N 51°05' E 003°44'0 0.0
2014-Aug-28 08:31N 51°05' E 003°44'0 0.0
2014-Aug-28 07:31N 51°05' E 003°44'0 0.0
2014-Aug-28 06:31N 51°05' E 003°44'0 0.0
2014-Aug-28 05:31N 51°05' E 003°44'0 0.0
2014-Aug-28 04:31N 51°05' E 003°44'0 0.0
2014-Aug-28 03:28N 51°05' E 003°44'0 0.0
2014-Aug-28 02:31N 51°05' E 003°44'0 0.0
2014-Aug-28 01:25N 51°05' E 003°44'0 0.0
2014-Aug-28 00:25N 51°05' E 003°44'0 0.0
2014-Aug-27 23:25N 51°05' E 003°44'0 0.0
2014-Aug-27 22:31N 51°05' E 003°44'0 0.0
2014-Aug-27 21:31N 51°05' E 003°44'0 0.0
2014-Aug-27 20:31N 51°05' E 003°44'0 0.0
2014-Aug-27 19:31N 51°05' E 003°44'0 0.0
2014-Aug-27 18:31N 51°05' E 003°44'0 0.0
2014-Aug-27 17:31N 51°05' E 003°44'0 0.0
2014-Aug-27 16:31N 51°05' E 003°44'0 0.0
2014-Aug-27 15:19N 51°05' E 003°44'0 0.0
2014-Aug-27 14:31N 51°05' E 003°44'0 0.0
2014-Aug-27 13:31N 51°05' E 003°44'0 0.0
2014-Aug-27 12:31N 51°05' E 003°44'0 0.0
2014-Aug-27 11:31N 51°05' E 003°44'0 0.0
2014-Aug-27 10:31N 51°05' E 003°44'0 0.0
2014-Aug-27 09:31N 51°05' E 003°44'0 0.0
2014-Aug-27 08:31N 51°05' E 003°44'0 0.0
2014-Aug-27 07:31N 51°05' E 003°44'0 0.0
2014-Aug-27 06:33N 51°05' E 003°44'0 0.0
2014-Aug-27 05:31N 51°05' E 003°44'0 0.3
2014-Aug-27 04:33N 51°05' E 003°44'0 0.0
2014-Aug-27 03:25N 51°05' E 003°44'0 0.0
2014-Aug-27 02:31N 51°05' E 003°44'0 0.0
2014-Aug-27 01:31N 51°05' E 003°44'0 0.0
2014-Aug-27 00:28N 51°05' E 003°44'0 0.0
2014-Aug-26 23:31N 51°05' E 003°44'0 0.0
2014-Aug-26 22:31N 51°05' E 003°44'0 0.0
2014-Aug-26 21:31N 51°05' E 003°44'0 0.0
2014-Aug-26 20:31N 51°05' E 003°44'0 0.0
2014-Aug-26 19:31N 51°05' E 003°44'0 0.0
2014-Aug-26 18:28N 51°05' E 003°44'0 0.0
2014-Aug-26 17:31N 51°05' E 003°44'0 0.0
2014-Aug-26 16:31N 51°05' E 003°44'0 0.0
2014-Aug-26 15:31N 51°05' E 003°44'0 0.0
2014-Aug-26 14:31N 51°05' E 003°44'0 0.0
2014-Aug-26 13:31N 51°05' E 003°44'0 0.0
2014-Aug-26 12:31N 51°05' E 003°44'0 0.0
2014-Aug-26 11:31N 51°05' E 003°44'0 0.0
2014-Aug-26 10:31N 51°05' E 003°44'0 0.0
2014-Aug-26 09:31N 51°05' E 003°44'0 0.0
2014-Aug-26 08:34N 51°05' E 003°44'0 0.0
2014-Aug-26 07:31N 51°05' E 003°44'0 0.0
2014-Aug-26 06:33N 51°05' E 003°44'0 0.0
2014-Aug-26 05:28N 51°05' E 003°44'0 0.0
2014-Aug-26 04:30N 51°05' E 003°44'0 0.0
2014-Aug-26 03:31N 51°05' E 003°44'0 0.0
2014-Aug-26 02:33N 51°05' E 003°44'0 0.0
2014-Aug-26 01:33N 51°05' E 003°44'0 0.0
2014-Aug-26 00:33N 51°05' E 003°44'0 0.0
2014-Aug-25 23:30N 51°05' E 003°44'0 0.0
2014-Aug-25 22:33N 51°05' E 003°44'0 0.0
2014-Aug-25 21:33N 51°05' E 003°44'1 1.5
2014-Aug-25 20:33N 51°07' E 003°45'8 7.6
2014-Aug-25 19:33N 51°14' E 003°49'6 5.8
2014-Aug-25 18:34N 51°20' E 003°49'0 0.0
2014-Aug-25 17:34N 51°20' E 003°49'5 4.5
2014-Aug-25 16:33N 51°23' E 003°43'7 7.5
2014-Aug-25 15:33N 51°27' E 003°33'7 6.8
2014-Aug-25 14:33N 51°32' E 003°26'11 7.9
2014-Aug-25 13:10N 51°41' E 003°17'31 2.2
2014-Aug-24 23:19N 52°07' E 002°49'37 2.1
2014-Aug-24 05:31N 52°02' E 003°50'9 9.2
2014-Aug-24 04:33N 51°59' E 004°03'1111.4
2014-Aug-24 03:34N 51°54' E 004°19'8 7.8
2014-Aug-24 02:33N 51°50' E 004°30'5 5.2
2014-Aug-24 01:31N 51°47' E 004°38'0 0.0
2014-Aug-24 00:31N 51°47' E 004°38'0 0.0
2014-Aug-23 23:31N 51°47' E 004°38'0 0.0
2014-Aug-23 22:31N 51°47' E 004°38'0 0.0
2014-Aug-23 21:31N 51°47' E 004°38'0 0.0
2014-Aug-23 20:31N 51°47' E 004°38'0 0.0
2014-Aug-23 19:34N 51°47' E 004°38'72 4.5
2014-Aug-23 03:30N 52°56' E 003°59'68 9.7
2014-Aug-22 20:32N 53°57' E 004°46'  

Dump ship's entire track history